METAR-berichten van nabijgelegen luchthavens

 

EHBK - Maastricht-Aachen Airport
Afstand tot station: WZW 9km
Bijgewerkt: 22-10-2017 11:55
Mist, Meestal bewolkt
Mist, Meestal bewolkt
 Wind vanuit ZW
Wind: ZW 28 km/h
Temperatuur: 10°C
Wind Chill: 7°C
Dauwpunt: 9°C
Vochtigheid: 94%
Luchtdruk: 1011 hPa
Overzicht: Mist
Bewolking: Meestal bewolkt
Zicht: 2 km
Details bewolking: Licht bewolkt 122 m
Gedeeltelijk bewolkt 183 m
Meestal bewolkt 213 m
2017/10/22 09:55 EHBK 220955Z AUTO 23015KT 200V260 2300 BR FEW004 SCT006 BKN007 10/09 Q1011 TEMPO 4000 RADZ
ETNG - NATO Air Base Geilenkirchen
Afstand tot station: ONO 11km
Bijgewerkt: 20-10-2017 19:50
NIET actueel
Gedeeltelijk bewolkt
Gedeeltelijk bewolkt
 Wind vanuit ZW
Wind: ZW 17 km/h
Temperatuur: 13°C
Dauwpunt: 7°C
Vochtigheid: 67%
Luchtdruk: 1013 hPa
Bewolking: Gedeeltelijk bewolkt
Zicht: 10 km
Details bewolking: Gedeeltelijk bewolkt 1372 m
2017/10/20 17:50 ETNG 201750Z 22009KT 9999 SCT045 13/07 Q1013 NOSIG